Time;durP1;ratioP1;P1;durP2;ratioP2;P2;SDS_P1;SDS_P2;PMS_P1;PMS_P2;Temp;Humidity;BMP_temperature;BMP_pressure;BME280_temperature;BME280_humidity;BME280_pressure;Samples;Min_cycle;Max_cycle;Signal;HPM_P1;HPM_P2
2021/10/23 00:01:18;;;;;;;;;;;8.00;99.90;;;;;;1927017;73;20498;-69
2021/10/23 00:03:45;;;;;;;;;;;7.90;99.90;;;;;;1924901;73;20147;-70
2021/10/23 00:06:11;;;;;;;;;;;8.00;99.90;;;;;;1922296;73;20512;-69
2021/10/23 00:08:38;;;;;;;;;;;8.00;99.90;;;;;;1923646;73;20175;-69
2021/10/23 00:11:05;;;;;;;;;;;8.00;99.90;;;;;;1923153;73;20158;-70
2021/10/23 00:13:32;;;;;;;;;;;8.00;99.90;;;;;;1925102;73;20174;-69
2021/10/23 00:15:59;;;;;;;;;;;7.90;99.90;;;;;;1920216;73;20998;-68
2021/10/23 00:18:26;;;;;;;;;;;7.90;99.90;;;;;;1924104;73;20237;-68
2021/10/23 00:20:52;;;;;;;;;;;8.10;99.90;;;;;;1925139;73;20170;-68
2021/10/23 00:23:19;;;;;;;;;;;8.00;99.90;;;;;;1922921;73;20363;-68
2021/10/23 00:25:46;;;;;;;;;;;8.10;99.90;;;;;;1923187;73;20171;-67
2021/10/23 00:28:13;;;;;;;;;;;8.10;99.90;;;;;;1925040;73;20443;-68
2021/10/23 00:30:40;;;;;;;;;;;8.10;99.90;;;;;;1923786;73;20117;-68
2021/10/23 00:33:06;;;;;;;;;;;8.10;99.90;;;;;;1926054;73;20181;-69
2021/10/23 00:35:33;;;;;;;;;;;8.00;99.90;;;;;;1924043;73;20119;-68
2021/10/23 00:38:04;;;;;;;;;;;8.00;99.90;;;;;;1925681;73;20165;-68
2021/10/23 00:40:29;;;;;;;;;;;7.90;99.90;;;;;;1916235;73;20181;-68
2021/10/23 00:42:56;;;;;;;;;;;8.00;99.90;;;;;;1921821;73;20187;-67
2021/10/23 00:45:23;;;;;;;;;;;8.00;99.90;;;;;;1923131;73;20175;-69
2021/10/23 00:47:50;;;;;;;;;;;8.00;99.90;;;;;;1923652;73;20128;-68
2021/10/23 00:50:17;;;;;;;;;;;8.00;99.90;;;;;;1923520;73;20499;-68
2021/10/23 00:52:44;;;;;;;;;;;7.90;99.90;;;;;;1922961;73;20213;-69
2021/10/23 00:55:11;;;;;;;;;;;7.90;99.90;;;;;;1925421;73;20204;-69
2021/10/23 00:57:38;;;;;;;;;;;8.10;99.90;;;;;;1925287;73;20459;-69
2021/10/23 01:00:06;;;;;;;;;;;8.10;99.90;;;;;;1923444;73;20178;-67
2021/10/23 01:02:33;;;;;;;;;;;8.00;99.90;;;;;;1923853;73;20151;-67
2021/10/23 01:04:59;;;;;;;;;;;7.90;99.90;;;;;;1919832;73;20185;-67
2021/10/23 01:07:26;;;;;;;;;;;7.80;99.90;;;;;;1922039;73;20136;-68
2021/10/23 01:09:53;;;;;;;;;;;7.90;99.90;;;;;;1923398;72;20152;-69
2021/10/23 01:12:20;;;;;;;;;;;8.00;99.90;;;;;;1923406;73;20183;-68
2021/10/23 01:14:47;;;;;;;;;;;8.00;99.90;;;;;;1923567;73;20545;-68
2021/10/23 01:17:15;;;;;;;;;;;7.90;99.90;;;;;;1926845;72;20203;-68
2021/10/23 01:19:42;;;;;;;;;;;8.00;99.90;;;;;;1919613;72;20202;-68
2021/10/23 01:22:09;;;;;;;;;;;8.00;99.90;;;;;;1924352;72;20430;-67
2021/10/23 01:24:36;;;;;;;;;;;8.00;99.90;;;;;;1923670;73;20179;-68
2021/10/23 01:27:03;;;;;;;;;;;8.10;99.90;;;;;;1924793;73;20128;-68
2021/10/23 01:29:30;;;;;;;;;;;8.00;99.90;;;;;;1926952;73;20470;-68
2021/10/23 01:31:57;;;;;;;;;;;8.00;99.90;;;;;;1920514;73;20173;-68
2021/10/23 01:34:25;;;;;;;;;;;7.90;99.90;;;;;;1926675;73;20202;-69
2021/10/23 01:36:53;;;;;;;;;;;8.00;99.90;;;;;;1924909;73;20279;-69
2021/10/23 01:39:21;;;;;;;;;;;7.90;99.90;;;;;;1925690;73;20166;-69
2021/10/23 01:41:47;;;;;;;;;;;8.00;99.90;;;;;;1925499;72;20490;-68
2021/10/23 01:44:15;;;;;;;;;;;8.00;99.90;;;;;;1926611;72;20174;-69
2021/10/23 01:46:42;;;;;;;;;;;8.00;99.90;;;;;;1924573;72;20167;-68
2021/10/23 01:49:09;;;;;;;;;;;7.90;99.90;;;;;;1921946;73;20150;-68
2021/10/23 01:51:37;;;;;;;;;;;7.90;99.90;;;;;;1925514;72;20170;-69
2021/10/23 01:54:05;;;;;;;;;;;7.80;99.90;;;;;;1921244;73;20237;-68
2021/10/23 01:56:33;;;;;;;;;;;7.90;99.90;;;;;;1924737;73;20691;-68
2021/10/23 01:59:00;;;;;;;;;;;7.90;99.90;;;;;;1920646;73;20409;-69
2021/10/23 02:01:27;;;;;;;;;;;8.00;99.90;;;;;;1922234;73;20222;-69
2021/10/23 02:03:54;;;;;;;;;;;7.90;99.90;;;;;;1922023;73;20158;-68
2021/10/23 02:06:21;;;;;;;;;;;7.90;99.90;;;;;;1919663;73;20207;-68
2021/10/23 02:08:48;;;;;;;;;;;8.10;99.90;;;;;;1922577;73;20116;-69
2021/10/23 02:11:14;;;;;;;;;;;8.00;99.90;;;;;;1920577;73;20214;-69
2021/10/23 02:13:42;;;;;;;;;;;8.10;99.90;;;;;;1921476;73;20173;-69
2021/10/23 02:16:09;;;;;;;;;;;8.20;99.90;;;;;;1923320;73;20218;-70
2021/10/23 02:18:36;;;;;;;;;;;8.20;99.90;;;;;;1926252;73;20229;-68
2021/10/23 02:21:05;;;;;;;;;;;8.20;99.90;;;;;;1924062;73;20213;-69
2021/10/23 02:23:31;;;;;;;;;;;8.30;99.90;;;;;;1921131;73;20603;-68
2021/10/23 02:25:58;;;;;;;;;;;8.20;99.90;;;;;;1923263;73;20213;-68
2021/10/23 02:28:25;;;;;;;;;;;8.10;99.90;;;;;;1922176;73;20197;-69
2021/10/23 02:30:52;;;;;;;;;;;8.00;99.90;;;;;;1922455;73;20217;-68
2021/10/23 02:33:18;;;;;;;;;;;8.00;99.90;;;;;;1924197;73;20268;-67
2021/10/23 02:35:45;;;;;;;;;;;8.00;99.90;;;;;;1927707;73;20173;-70
2021/10/23 02:38:12;;;;;;;;;;;8.00;99.90;;;;;;1924250;73;20154;-70
2021/10/23 02:40:39;;;;;;;;;;;8.10;99.90;;;;;;1921774;73;20162;-69
2021/10/23 02:43:06;;;;;;;;;;;7.90;99.90;;;;;;1925839;73;20126;-69
2021/10/23 02:45:33;;;;;;;;;;;7.90;99.90;;;;;;1927587;72;20203;-68
2021/10/23 02:48:00;;;;;;;;;;;8.00;99.90;;;;;;1922435;73;20161;-69
2021/10/23 02:50:27;;;;;;;;;;;7.90;99.90;;;;;;1927282;72;20120;-69
2021/10/23 02:52:54;;;;;;;;;;;7.70;99.90;;;;;;1924157;73;20209;-69
2021/10/23 02:55:21;;;;;;;;;;;7.80;99.90;;;;;;1925804;73;20256;-70
2021/10/23 02:57:48;;;;;;;;;;;7.80;99.90;;;;;;1926774;73;20206;-70
2021/10/23 03:00:15;;;;;;;;;;;7.70;99.90;;;;;;1926816;73;20222;-69
2021/10/23 03:02:42;;;;;;;;;;;7.70;99.90;;;;;;1924914;73;20461;-70
2021/10/23 03:05:09;;;;;;;;;;;7.70;99.90;;;;;;1922545;73;20215;-70
2021/10/23 03:07:36;;;;;;;;;;;7.70;99.90;;;;;;1924701;73;20520;-70
2021/10/23 03:10:03;;;;;;;;;;;7.80;99.90;;;;;;1925542;73;20174;-70
2021/10/23 03:12:30;;;;;;;;;;;7.80;99.90;;;;;;1923803;73;20193;-69
2021/10/23 03:14:56;;;;;;;;;;;7.90;99.90;;;;;;1924290;73;20469;-68
2021/10/23 03:17:23;;;;;;;;;;;7.90;99.90;;;;;;1922990;73;20207;-68
2021/10/23 03:19:50;;;;;;;;;;;7.80;99.90;;;;;;1924743;73;20177;-67
2021/10/23 03:22:17;;;;;;;;;;;7.70;99.90;;;;;;1919814;73;20168;-69
2021/10/23 03:24:44;;;;;;;;;;;7.80;99.90;;;;;;1920375;73;20182;-69
2021/10/23 03:27:10;;;;;;;;;;;7.90;99.90;;;;;;1919649;73;20206;-69
2021/10/23 03:29:37;;;;;;;;;;;7.80;99.90;;;;;;1924890;73;20405;-69
2021/10/23 03:32:04;;;;;;;;;;;7.70;99.90;;;;;;1924408;73;20213;-69
2021/10/23 03:34:31;;;;;;;;;;;7.70;99.90;;;;;;1923463;73;20201;-71
2021/10/23 03:36:58;;;;;;;;;;;7.60;99.90;;;;;;1945482;72;20124;-72
2021/10/23 03:39:24;;;;;;;;;;;7.60;99.90;;;;;;1946121;72;20174;-71
2021/10/23 03:41:51;;;;;;;;;;;7.50;99.90;;;;;;1947091;72;20169;-71
2021/10/23 03:44:18;;;;;;;;;;;7.50;99.90;;;;;;1943763;72;20192;-70
2021/10/23 03:46:45;;;;;;;;;;;7.60;99.90;;;;;;1945028;72;20176;-71
2021/10/23 03:49:12;;;;;;;;;;;7.70;99.90;;;;;;1938900;72;20214;-70
2021/10/23 03:51:39;;;;;;;;;;;7.60;99.90;;;;;;1945643;72;20186;-70
2021/10/23 03:54:05;;;;;;;;;;;7.60;99.90;;;;;;1942817;72;20452;-71
2021/10/23 03:56:32;;;;;;;;;;;7.50;99.90;;;;;;1946638;72;20668;-70
2021/10/23 03:58:59;;;;;;;;;;;7.40;99.90;;;;;;1946433;71;20151;-71
2021/10/23 04:01:26;;;;;;;;;;;7.50;99.90;;;;;;1945821;72;20114;-72
2021/10/23 04:03:54;;;;;;;;;;;7.50;99.90;;;;;;1945856;72;20119;-71
2021/10/23 04:06:21;;;;;;;;;;;7.50;99.90;;;;;;1947719;72;20120;-71
2021/10/23 04:08:48;;;;;;;;;;;7.40;99.90;;;;;;1946421;72;20618;-69
2021/10/23 04:11:15;;;;;;;;;;;7.50;99.90;;;;;;1943726;72;20198;-71
2021/10/23 04:13:42;;;;;;;;;;;7.50;99.90;;;;;;1943276;72;20182;-71
2021/10/23 04:16:08;;;;;;;;;;;7.40;99.90;;;;;;1948088;72;20154;-71
2021/10/23 04:18:35;;;;;;;;;;;7.50;99.90;;;;;;1947313;72;20946;-71
2021/10/23 04:21:02;;;;;;;;;;;7.50;99.90;;;;;;1951352;72;20238;-71
2021/10/23 04:23:29;;;;;;;;;;;7.40;99.90;;;;;;1942267;72;20259;-70
2021/10/23 04:25:56;;;;;;;;;;;7.50;99.90;;;;;;1943939;72;20180;-71
2021/10/23 04:28:22;;;;;;;;;;;7.50;99.90;;;;;;1946738;72;20181;-71
2021/10/23 04:30:49;;;;;;;;;;;7.50;99.90;;;;;;1944337;72;20159;-70
2021/10/23 04:33:16;;;;;;;;;;;7.50;99.90;;;;;;1946417;72;20180;-71
2021/10/23 04:35:43;;;;;;;;;;;7.40;99.90;;;;;;1945034;72;20169;-71
2021/10/23 04:38:10;;;;;;;;;;;7.30;99.90;;;;;;1946394;72;20184;-71
2021/10/23 04:40:38;;;;;;;;;;;7.50;99.90;;;;;;1902711;74;20157;-71
2021/10/23 04:43:05;;;;;;;;;;;7.50;99.90;;;;;;1870031;75;20151;-71
2021/10/23 04:45:32;;;;;;;;;;;7.60;99.90;;;;;;1865032;75;20215;-71
2021/10/23 04:48:00;;;;;;;;;;;7.50;99.90;;;;;;1868339;75;20112;-70
2021/10/23 04:50:27;;;;;;;;;;;7.50;99.90;;;;;;1863272;75;20185;-72
2021/10/23 04:52:54;;;;;;;;;;;7.50;99.90;;;;;;1867927;75;20298;-72
2021/10/23 04:55:21;;;;;;;;;;;7.60;99.90;;;;;;1867130;75;20451;-73
2021/10/23 04:57:47;;;;;;;;;;;7.60;99.90;;;;;;1866554;75;20249;-73
2021/10/23 05:00:14;;;;;;;;;;;7.50;99.90;;;;;;1868922;75;20455;-72
2021/10/23 05:02:41;;;;;;;;;;;7.60;99.90;;;;;;1868435;75;20402;-72
2021/10/23 05:05:08;;;;;;;;;;;7.50;99.90;;;;;;1868046;75;20115;-72
2021/10/23 05:07:35;;;;;;;;;;;7.50;99.90;;;;;;1866991;75;20204;-72
2021/10/23 05:10:02;;;;;;;;;;;7.50;99.90;;;;;;1872058;75;20488;-72
2021/10/23 05:12:29;;;;;;;;;;;7.60;99.90;;;;;;1870419;75;20508;-72
2021/10/23 05:14:56;;;;;;;;;;;7.60;99.90;;;;;;1899790;74;20226;-73
2021/10/23 05:17:22;;;;;;;;;;;7.60;99.90;;;;;;1870040;75;20670;-73
2021/10/23 05:19:49;;;;;;;;;;;7.50;99.90;;;;;;1867383;75;20178;-73
2021/10/23 05:22:16;;;;;;;;;;;7.50;99.90;;;;;;1904989;74;20126;-72
2021/10/23 05:24:43;;;;;;;;;;;7.60;99.90;;;;;;1869231;75;20216;-72
2021/10/23 05:27:10;;;;;;;;;;;7.50;99.90;;;;;;1873823;75;20124;-72
2021/10/23 05:29:36;;;;;;;;;;;7.50;99.90;;;;;;1869505;75;20204;-72
2021/10/23 05:32:03;;;;;;;;;;;7.50;99.90;;;;;;1867184;75;20205;-73
2021/10/23 05:34:30;;;;;;;;;;;7.50;99.90;;;;;;1868347;75;20115;-72
2021/10/23 05:36:57;;;;;;;;;;;7.50;99.90;;;;;;1867199;75;20258;-73
2021/10/23 05:39:24;;;;;;;;;;;7.50;99.90;;;;;;1862272;75;20419;-72
2021/10/23 05:41:50;;;;;;;;;;;7.50;99.90;;;;;;1866663;75;20433;-72
2021/10/23 05:44:18;;;;;;;;;;;7.50;99.90;;;;;;1870026;75;20152;-72
2021/10/23 05:46:44;;;;;;;;;;;7.60;99.90;;;;;;1869697;75;20222;-72
2021/10/23 05:49:11;;;;;;;;;;;7.50;99.90;;;;;;1903355;74;20184;-72
2021/10/23 05:51:38;;;;;;;;;;;7.40;99.90;;;;;;1869628;75;20175;-73
2021/10/23 05:54:05;;;;;;;;;;;7.50;99.90;;;;;;1903240;74;20147;-73
2021/10/23 05:56:32;;;;;;;;;;;7.50;99.90;;;;;;1867920;75;20175;-73
2021/10/23 05:59:09;;;;;;;;;;;7.50;99.90;;;;;;1867235;75;20138;-73
2021/10/23 06:01:27;;;;;;;;;;;7.40;99.90;;;;;;1899595;74;20112;-73
2021/10/23 06:03:54;;;;;;;;;;;7.50;99.90;;;;;;1904583;74;20219;-73
2021/10/23 06:06:20;;;;;;;;;;;7.50;99.90;;;;;;1898914;74;20127;-73
2021/10/23 06:08:47;;;;;;;;;;;7.30;99.90;;;;;;1905440;74;20192;-72
2021/10/23 06:11:14;;;;;;;;;;;7.40;99.90;;;;;;1900502;74;20223;-72
2021/10/23 06:13:41;;;;;;;;;;;7.40;99.90;;;;;;1898607;74;20125;-73
2021/10/23 06:16:08;;;;;;;;;;;7.50;99.90;;;;;;1899382;74;20216;-72
2021/10/23 06:18:35;;;;;;;;;;;7.50;99.90;;;;;;1904511;74;20177;-72
2021/10/23 06:21:01;;;;;;;;;;;7.50;99.90;;;;;;1904055;74;20532;-73
2021/10/23 06:23:31;;;;;;;;;;;7.50;99.90;;;;;;1904625;74;20169;-72
2021/10/23 06:25:57;;;;;;;;;;;7.40;99.90;;;;;;1896926;74;20235;-72
2021/10/23 06:28:24;;;;;;;;;;;7.40;99.90;;;;;;1906766;74;20169;-72
2021/10/23 06:30:51;;;;;;;;;;;7.50;99.90;;;;;;1901355;74;20191;-72
2021/10/23 06:33:21;;;;;;;;;;;7.60;99.90;;;;;;1903590;74;20117;-72
2021/10/23 06:35:48;;;;;;;;;;;7.60;99.90;;;;;;1899252;74;20225;-72
2021/10/23 06:38:14;;;;;;;;;;;7.60;99.90;;;;;;1902391;74;20425;-72
2021/10/23 06:40:41;;;;;;;;;;;7.60;99.90;;;;;;1902120;74;20202;-73
2021/10/23 06:43:09;;;;;;;;;;;7.70;99.90;;;;;;1901644;74;20172;-72
2021/10/23 06:45:36;;;;;;;;;;;7.80;99.90;;;;;;1908295;74;20240;-72
2021/10/23 06:48:03;;;;;;;;;;;7.70;99.90;;;;;;1906531;74;20215;-75
2021/10/23 06:50:30;;;;;;;;;;;7.80;99.90;;;;;;1902734;74;20130;-75
2021/10/23 06:52:57;;;;;;;;;;;7.80;99.90;;;;;;1901368;74;20446;-75
2021/10/23 06:55:24;;;;;;;;;;;7.80;99.90;;;;;;1898526;74;20156;-75
2021/10/23 06:57:51;;;;;;;;;;;7.80;99.90;;;;;;1901504;74;20126;-74
2021/10/23 07:00:17;;;;;;;;;;;7.90;99.90;;;;;;1904210;74;20521;-75
2021/10/23 07:02:45;;;;;;;;;;;7.90;99.90;;;;;;1902398;74;20125;-75
2021/10/23 07:05:12;;;;;;;;;;;7.90;99.90;;;;;;1900609;74;20181;-76
2021/10/23 07:07:39;;;;;;;;;;;7.90;99.90;;;;;;1902400;74;20179;-75
2021/10/23 07:10:06;;;;;;;;;;;8.10;99.90;;;;;;1905017;74;20115;-74
2021/10/23 07:12:33;;;;;;;;;;;8.10;99.90;;;;;;1903277;74;20169;-74
2021/10/23 07:15:00;;;;;;;;;;;8.10;99.90;;;;;;1899079;74;20165;-73
2021/10/23 07:17:27;;;;;;;;;;;8.10;99.90;;;;;;1903220;74;20187;-73
2021/10/23 07:19:54;;;;;;;;;;;8.10;99.90;;;;;;1907092;74;20169;-73
2021/10/23 07:22:21;;;;;;;;;;;8.10;99.90;;;;;;1905787;74;20126;-72
2021/10/23 07:24:48;;;;;;;;;;;8.20;99.90;;;;;;1899587;74;20415;-72
2021/10/23 07:27:15;;;;;;;;;;;8.10;99.90;;;;;;1903492;74;20179;-73
2021/10/23 07:29:42;;;;;;;;;;;8.10;99.90;;;;;;1900162;74;20159;-75
2021/10/23 07:32:09;;;;;;;;;;;8.10;99.90;;;;;;1899636;74;20171;-73
2021/10/23 07:34:35;;;;;;;;;;;8.20;99.90;;;;;;1907176;74;20162;-75
2021/10/23 07:37:02;;;;;;;;;;;8.20;99.90;;;;;;1870247;75;20453;-75
2021/10/23 07:39:29;;;;;;;;;;;8.10;99.90;;;;;;1906115;74;20134;-75
2021/10/23 07:41:56;;;;;;;;;;;8.20;99.90;;;;;;1868411;75;20500;-75
2021/10/23 07:44:23;;;;;;;;;;;8.30;99.90;;;;;;1865248;75;20169;-76
2021/10/23 07:46:50;;;;;;;;;;;8.40;99.90;;;;;;1864954;75;20207;-73
2021/10/23 07:49:16;;;;;;;;;;;8.40;99.90;;;;;;1868959;75;20185;-72
2021/10/23 07:51:43;;;;;;;;;;;8.40;99.90;;;;;;1872736;75;20156;-73
2021/10/23 07:54:10;;;;;;;;;;;8.30;99.90;;;;;;1867215;75;20189;-73
2021/10/23 07:56:38;;;;;;;;;;;8.40;99.90;;;;;;1866307;75;20193;-74
2021/10/23 07:59:05;;;;;;;;;;;8.40;99.90;;;;;;1894145;74;20182;-73
2021/10/23 08:01:31;;;;;;;;;;;8.60;99.90;;;;;;1888352;74;20176;-72
2021/10/23 08:03:58;;;;;;;;;;;8.60;99.90;;;;;;1887378;74;20491;-72
2021/10/23 08:06:26;;;;;;;;;;;8.70;99.90;;;;;;1886714;74;20141;-72
2021/10/23 08:08:53;;;;;;;;;;;8.70;99.90;;;;;;1886785;74;20440;-72
2021/10/23 08:11:20;;;;;;;;;;;8.70;99.90;;;;;;1890573;74;20115;-71
2021/10/23 08:13:47;;;;;;;;;;;8.80;99.90;;;;;;1887384;74;20463;-73
2021/10/23 08:16:14;;;;;;;;;;;8.80;99.90;;;;;;1889112;74;20157;-72
2021/10/23 08:18:41;;;;;;;;;;;8.90;99.90;;;;;;1900967;74;20168;-73
2021/10/23 08:21:07;;;;;;;;;;;9.00;99.90;;;;;;1868549;75;20182;-72
2021/10/23 08:23:34;;;;;;;;;;;9.00;99.90;;;;;;1866205;75;20392;-72
2021/10/23 08:26:01;;;;;;;;;;;9.10;99.90;;;;;;1867792;75;20187;-73
2021/10/23 08:28:28;;;;;;;;;;;9.20;99.90;;;;;;1869744;75;20118;-72
2021/10/23 08:30:55;;;;;;;;;;;9.30;99.90;;;;;;1868424;75;20508;-70
2021/10/23 08:33:21;;;;;;;;;;;9.30;99.90;;;;;;1870015;75;20258;-71
2021/10/23 08:35:48;;;;;;;;;;;9.40;99.90;;;;;;1871242;75;20366;-72
2021/10/23 08:38:15;;;;;;;;;;;9.50;99.90;;;;;;1870368;75;20185;-72
2021/10/23 08:40:42;;;;;;;;;;;9.60;99.90;;;;;;1868998;75;20128;-70
2021/10/23 08:43:09;;;;;;;;;;;9.60;99.90;;;;;;1869993;75;20390;-71
2021/10/23 08:45:38;;;;;;;;;;;9.60;99.90;;;;;;1867511;75;20217;-72
2021/10/23 08:48:06;;;;;;;;;;;9.60;99.90;;;;;;1863654;75;20309;-70
2021/10/23 08:50:33;;;;;;;;;;;9.70;99.90;;;;;;1865621;75;20157;-70
2021/10/23 08:53:04;;;;;;;;;;;9.70;99.90;;;;;;1862707;75;20245;-71
2021/10/23 08:55:28;;;;;;;;;;;9.80;99.90;;;;;;1862703;75;20238;-71
2021/10/23 08:57:55;;;;;;;;;;;9.90;99.90;;;;;;1867158;75;20154;-71
2021/10/23 09:00:22;;;;;;;;;;;9.90;99.90;;;;;;1866559;75;20510;-71
2021/10/23 09:02:49;;;;;;;;;;;10.00;99.90;;;;;;1867733;75;20163;-71
2021/10/23 09:05:16;;;;;;;;;;;10.00;99.90;;;;;;1864400;75;20183;-71
2021/10/23 09:07:46;;;;;;;;;;;10.00;99.90;;;;;;1869863;75;20121;-71
2021/10/23 09:10:14;;;;;;;;;;;10.00;99.90;;;;;;1874078;75;20222;-71
2021/10/23 09:12:41;;;;;;;;;;;10.10;99.90;;;;;;1866203;75;20371;-71
2021/10/23 09:15:09;;;;;;;;;;;10.10;99.90;;;;;;1867420;75;20111;-70
2021/10/23 09:17:36;;;;;;;;;;;10.10;99.90;;;;;;1868344;75;20190;-70
2021/10/23 09:20:10;;;;;;;;;;;10.20;99.90;;;;;;1900632;74;20310;-70
2021/10/23 09:22:39;;;;;;;;;;;10.20;99.90;;;;;;1872545;75;20504;-72
2021/10/23 09:25:10;;;;;;;;;;;10.20;99.90;;;;;;1897490;74;20159;-70
2021/10/23 09:27:39;;;;;;;;;;;10.30;99.90;;;;;;1871416;75;20452;-73
2021/10/23 09:30:07;;;;;;;;;;;10.30;99.90;;;;;;1867888;75;20228;-71
2021/10/23 09:32:37;;;;;;;;;;;10.40;99.90;;;;;;1867847;75;20507;-71
2021/10/23 09:35:14;;;;;;;;;;;10.40;99.90;;;;;;1903174;74;20210;-71
2021/10/23 09:37:44;;;;;;;;;;;10.30;99.90;;;;;;1867453;75;20511;-71
2021/10/23 09:40:12;;;;;;;;;;;10.30;99.90;;;;;;1866910;75;20227;-69
2021/10/23 09:42:38;;;;;;;;;;;10.30;99.90;;;;;;1865524;75;20284;-71
2021/10/23 09:45:06;;;;;;;;;;;10.30;99.90;;;;;;1869515;75;20185;-71
2021/10/23 09:47:46;;;;;;;;;;;10.30;99.90;;;;;;1864878;75;20185;-71
2021/10/23 09:50:22;;;;;;;;;;;10.30;99.90;;;;;;1867166;75;20187;-71
2021/10/23 09:52:56;;;;;;;;;;;10.50;99.90;;;;;;1865434;75;20179;-71
2021/10/23 09:55:23;;;;;;;;;;;10.60;99.90;;;;;;1864582;75;20459;-71
2021/10/23 09:58:07;;;;;;;;;;;10.70;99.90;;;;;;1867919;75;20128;-71
2021/10/23 10:00:34;;;;;;;;;;;10.70;99.90;;;;;;1864586;75;20177;-71
2021/10/23 10:03:01;;;;;;;;;;;10.80;99.90;;;;;;1862690;75;21010;-70
2021/10/23 10:05:30;;;;;;;;;;;10.90;99.90;;;;;;1864855;75;20152;-71
2021/10/23 10:07:57;;;;;;;;;;;11.00;99.90;;;;;;1863145;75;20157;-71
2021/10/23 10:10:24;;;;;;;;;;;11.00;99.90;;;;;;1867888;75;20162;-71
2021/10/23 10:12:51;;;;;;;;;;;11.00;99.90;;;;;;1869447;75;20180;-71
2021/10/23 10:15:17;;;;;;;;;;;10.90;99.90;;;;;;1867947;75;20196;-71
2021/10/23 10:17:44;;;;;;;;;;;10.90;99.90;;;;;;1866724;75;20184;-71
2021/10/23 10:20:11;;;;;;;;;;;11.00;99.90;;;;;;1870405;75;20188;-70
2021/10/23 10:22:39;;;;;;;;;;;11.10;99.90;;;;;;1866562;75;20499;-71
2021/10/23 10:25:17;;;;;;;;;;;11.20;99.90;;;;;;1903193;74;20124;-71
2021/10/23 10:27:45;;;;;;;;;;;11.10;99.90;;;;;;1868033;75;20570;-71
2021/10/23 10:30:22;;;;;;;;;;;11.20;99.90;;;;;;1870266;75;20473;-71
2021/10/23 10:32:49;;;;;;;;;;;11.30;99.90;;;;;;1867717;75;20253;-70
2021/10/23 10:35:27;;;;;;;;;;;11.30;99.90;;;;;;1863997;75;20187;-71
2021/10/23 10:37:59;;;;;;;;;;;11.30;99.90;;;;;;1865180;75;20782;-70
2021/10/23 10:40:46;;;;;;;;;;;11.30;99.90;;;;;;1863605;75;20185;-70
2021/10/23 10:43:02;;;;;;;;;;;11.20;99.90;;;;;;1863954;75;20549;-71
2021/10/23 10:45:31;;;;;;;;;;;11.20;99.90;;;;;;1866241;75;20404;-70
2021/10/23 10:48:14;;;;;;;;;;;11.30;99.90;;;;;;1867601;75;20212;-71
2021/10/23 10:50:46;;;;;;;;;;;11.30;99.90;;;;;;1872514;75;20142;-70
2021/10/23 10:53:26;;;;;;;;;;;11.30;99.90;;;;;;1867600;75;20490;-71
2021/10/23 10:55:57;;;;;;;;;;;11.40;99.90;;;;;;1864783;75;20174;-71
2021/10/23 10:58:42;;;;;;;;;;;11.40;99.90;;;;;;1869654;75;20180;-72
2021/10/23 11:01:26;;;;;;;;;;;11.40;99.90;;;;;;1903359;74;20198;-73
2021/10/23 11:03:55;;;;;;;;;;;11.30;99.90;;;;;;1862218;75;20205;-71
2021/10/23 11:06:33;;;;;;;;;;;11.40;99.90;;;;;;1862880;75;20157;-73
2021/10/23 11:09:10;;;;;;;;;;;11.50;99.90;;;;;;1869178;75;20401;-72
2021/10/23 11:11:50;;;;;;;;;;;11.40;99.90;;;;;;1862599;75;20364;-73
2021/10/23 11:14:24;;;;;;;;;;;11.60;99.90;;;;;;1867754;75;20175;-74
2021/10/23 11:16:56;;;;;;;;;;;11.60;99.90;;;;;;1864081;75;20640;-72
2021/10/23 11:19:24;;;;;;;;;;;11.80;99.90;;;;;;1864714;75;20508;-73
2021/10/23 11:21:51;;;;;;;;;;;11.80;99.90;;;;;;1866211;75;20205;-74
2021/10/23 11:24:18;;;;;;;;;;;11.80;99.90;;;;;;1870771;75;20186;-74
2021/10/23 11:26:47;;;;;;;;;;;11.80;99.90;;;;;;1868807;75;20164;-76
2021/10/23 11:29:17;;;;;;;;;;;11.90;99.90;;;;;;1868115;75;20195;-72
2021/10/23 11:31:45;;;;;;;;;;;11.90;99.90;;;;;;1900979;74;20202;-74
2021/10/23 11:34:20;;;;;;;;;;;12.00;99.90;;;;;;1864705;75;20128;-75
2021/10/23 11:36:49;;;;;;;;;;;12.10;99.90;;;;;;1864332;75;20529;-74
2021/10/23 11:39:21;;;;;;;;;;;12.10;99.90;;;;;;1862922;75;20471;-75
2021/10/23 11:41:48;;;;;;;;;;;12.10;99.90;;;;;;1863992;75;20475;-73
2021/10/23 11:44:15;;;;;;;;;;;12.10;99.90;;;;;;1872531;75;20210;-73
2021/10/23 11:47:01;;;;;;;;;;;12.10;99.90;;;;;;1870861;75;20467;-76
2021/10/23 11:49:31;;;;;;;;;;;12.00;99.90;;;;;;1881934;74;20681;-75
2021/10/23 11:51:58;;;;;;;;;;;12.20;99.90;;;;;;1922788;73;20117;-76
2021/10/23 11:54:26;;;;;;;;;;;12.30;99.90;;;;;;1875931;76;20132;-73
2021/10/23 11:56:53;;;;;;;;;;;12.40;99.90;;;;;;1906743;75;20122;-73
2021/10/23 11:59:24;;;;;;;;;;;12.50;99.90;;;;;;1905519;75;20220;-74
2021/10/23 12:01:50;;;;;;;;;;;12.60;99.90;;;;;;1905149;73;20594;-72
2021/10/23 12:04:19;;;;;;;;;;;12.70;99.90;;;;;;1904202;75;20120;-73
2021/10/23 12:06:47;;;;;;;;;;;12.80;99.90;;;;;;1900043;75;20166;-73
2021/10/23 12:09:15;;;;;;;;;;;12.70;99.90;;;;;;1901119;75;20183;-72
2021/10/23 12:11:42;;;;;;;;;;;12.70;99.90;;;;;;1903754;75;20173;-73
2021/10/23 12:14:11;;;;;;;;;;;12.70;99.90;;;;;;1902484;75;20159;-73
2021/10/23 12:16:45;;;;;;;;;;;12.60;99.90;;;;;;1902031;75;20472;-74
2021/10/23 12:19:13;;;;;;;;;;;12.60;99.90;;;;;;1897768;75;20126;-74
2021/10/23 12:21:41;;;;;;;;;;;12.60;99.90;;;;;;1898139;75;20171;-74
2021/10/23 12:24:12;;;;;;;;;;;12.50;99.90;;;;;;1897774;75;20124;-75
2021/10/23 12:26:39;;;;;;;;;;;12.50;99.90;;;;;;1895691;75;20218;-75
2021/10/23 12:29:07;;;;;;;;;;;12.50;99.90;;;;;;1899180;75;20401;-75
2021/10/23 12:31:52;;;;;;;;;;;12.60;99.90;;;;;;1898443;75;20184;-75
2021/10/23 12:34:19;;;;;;;;;;;12.70;99.90;;;;;;1902852;73;20196;-75
2021/10/23 12:36:50;;;;;;;;;;;12.80;99.90;;;;;;1900162;74;20130;-75
2021/10/23 12:39:18;;;;;;;;;;;13.00;99.90;;;;;;1899603;75;20114;-75
2021/10/23 12:41:45;;;;;;;;;;;13.10;99.90;;;;;;1899129;75;20177;-74
2021/10/23 12:44:15;;;;;;;;;;;13.30;99.90;;;;;;1896871;73;20203;-75
2021/10/23 12:46:40;;;;;;;;;;;13.40;99.90;;;;;;1897905;74;20500;-75
2021/10/23 12:49:07;;;;;;;;;;;13.70;99.90;;;;;;1903250;73;20226;-74
2021/10/23 12:51:34;;;;;;;;;;;13.70;99.90;;;;;;1897366;75;20482;-76
2021/10/23 12:54:00;;;;;;;;;;;13.80;99.90;;;;;;1901668;74;20187;-75
2021/10/23 12:56:27;;;;;;;;;;;13.80;99.90;;;;;;1900473;74;20186;-74
2021/10/23 12:58:54;;;;;;;;;;;13.70;99.90;;;;;;1897132;74;20678;-76
2021/10/23 13:01:22;;;;;;;;;;;13.80;99.90;;;;;;1897749;74;20258;-76
2021/10/23 13:03:49;;;;;;;;;;;13.90;99.90;;;;;;1905861;73;20139;-76
2021/10/23 13:06:15;;;;;;;;;;;14.10;99.90;;;;;;1902645;73;20209;-75
2021/10/23 13:08:43;;;;;;;;;;;14.00;99.90;;;;;;1899838;74;20215;-75
2021/10/23 13:11:09;;;;;;;;;;;14.00;99.90;;;;;;1901061;74;20174;-74
2021/10/23 13:13:36;;;;;;;;;;;14.00;99.90;;;;;;1900859;75;20195;-75
2021/10/23 13:16:03;;;;;;;;;;;13.80;99.90;;;;;;1899203;74;20191;-74
2021/10/23 13:18:34;;;;;;;;;;;13.90;99.90;;;;;;1898190;75;20167;-75
2021/10/23 13:20:58;;;;;;;;;;;14.00;99.90;;;;;;1897379;75;20196;-75
2021/10/23 13:23:25;;;;;;;;;;;13.90;99.90;;;;;;1902661;73;20210;-76
2021/10/23 13:25:52;;;;;;;;;;;14.10;99.90;;;;;;1897044;74;20308;-76
2021/10/23 13:28:19;;;;;;;;;;;14.20;99.90;;;;;;1901965;74;20167;-76
2021/10/23 13:30:45;;;;;;;;;;;14.30;99.90;;;;;;1901468;74;20154;-76
2021/10/23 13:33:13;;;;;;;;;;;14.40;99.90;;;;;;1902672;74;20396;-75
2021/10/23 13:35:40;;;;;;;;;;;14.30;99.90;;;;;;1903601;73;20402;-74
2021/10/23 13:38:07;;;;;;;;;;;14.40;99.90;;;;;;1895820;74;20187;-74
2021/10/23 13:40:33;;;;;;;;;;;14.40;99.90;;;;;;1901976;73;20479;-75
2021/10/23 13:43:00;;;;;;;;;;;14.10;99.90;;;;;;1901743;74;20220;-71
2021/10/23 13:45:27;;;;;;;;;;;14.00;99.90;;;;;;1899564;74;20664;-72
2021/10/23 13:47:54;;;;;;;;;;;13.90;99.90;;;;;;1899892;74;20215;-71
2021/10/23 13:50:21;;;;;;;;;;;13.90;99.90;;;;;;1901278;74;20154;-72
2021/10/23 13:52:47;;;;;;;;;;;13.90;99.90;;;;;;1900468;74;20192;-75
2021/10/23 13:55:14;;;;;;;;;;;13.90;99.90;;;;;;1905638;73;20215;-73
2021/10/23 13:57:41;;;;;;;;;;;13.90;99.90;;;;;;1903954;74;20215;-72
2021/10/23 14:00:08;;;;;;;;;;;13.90;99.90;;;;;;1909306;74;20133;-72
2021/10/23 14:02:37;;;;;;;;;;;13.80;99.90;;;;;;1903162;74;20180;-73
2021/10/23 14:05:04;;;;;;;;;;;13.70;99.90;;;;;;1905631;73;20219;-72
2021/10/23 14:07:31;;;;;;;;;;;13.60;99.90;;;;;;1902614;74;20223;-73
2021/10/23 14:09:57;;;;;;;;;;;13.60;99.90;;;;;;1904526;74;20200;-72
2021/10/23 14:12:24;;;;;;;;;;;13.60;99.90;;;;;;1901287;74;20498;-73
2021/10/23 14:14:51;;;;;;;;;;;13.60;99.90;;;;;;1901426;74;20246;-71
2021/10/23 14:17:18;;;;;;;;;;;13.50;99.90;;;;;;1896650;74;20663;-72
2021/10/23 14:19:51;;;;;;;;;;;13.50;99.90;;;;;;1938805;73;20176;-73
2021/10/23 14:22:19;;;;;;;;;;;13.40;99.90;;;;;;1904892;75;20171;-72
2021/10/23 14:24:47;;;;;;;;;;;13.30;99.90;;;;;;1900829;75;20183;-73
2021/10/23 14:27:27;;;;;;;;;;;13.30;99.90;;;;;;1870800;75;20171;-73
2021/10/23 14:29:45;;;;;;;;;;;13.30;99.90;;;;;;1870409;75;20389;-72